sensor_id;sensor_type;location;lat;lon;timestamp;P1;durP1;ratioP1;P2;durP2;ratioP2
35010;SDS011;21205;37.378;127.098;2023-03-17T00:00:52;9.02;;;3.80;;
35010;SDS011;21205;37.378;127.098;2023-03-17T00:03:23;6.05;;;3.80;;
35010;SDS011;21205;37.378;127.098;2023-03-17T00:05:55;7.45;;;3.63;;
35010;SDS011;21205;37.378;127.098;2023-03-17T00:08:27;9.68;;;4.60;;
35010;SDS011;21205;37.378;127.098;2023-03-17T00:10:59;9.48;;;4.10;;
35010;SDS011;21205;37.378;127.098;2023-03-17T00:13:29;7.50;;;4.15;;
35010;SDS011;21205;37.378;127.098;2023-03-17T00:16:00;10.02;;;4.45;;
35010;SDS011;21205;37.378;127.098;2023-03-17T00:18:32;9.55;;;3.88;;
35010;SDS011;21205;37.378;127.098;2023-03-17T00:21:02;9.85;;;5.03;;
35010;SDS011;21205;37.378;127.098;2023-03-17T00:23:32;9.82;;;4.68;;
35010;SDS011;21205;37.378;127.098;2023-03-17T00:26:03;9.15;;;5.10;;
35010;SDS011;21205;37.378;127.098;2023-03-17T00:28:33;11.68;;;4.50;;
35010;SDS011;21205;37.378;127.098;2023-03-17T00:31:05;13.27;;;4.78;;
35010;SDS011;21205;37.378;127.098;2023-03-17T00:33:44;18.48;;;4.63;;
35010;SDS011;21205;37.378;127.098;2023-03-17T00:36:19;8.43;;;4.47;;
35010;SDS011;21205;37.378;127.098;2023-03-17T00:38:51;7.30;;;4.15;;
35010;SDS011;21205;37.378;127.098;2023-03-17T00:41:20;10.60;;;4.47;;
35010;SDS011;21205;37.378;127.098;2023-03-17T00:43:50;7.13;;;4.53;;
35010;SDS011;21205;37.378;127.098;2023-03-17T00:46:24;10.77;;;4.40;;
35010;SDS011;21205;37.378;127.098;2023-03-17T00:49:09;9.73;;;4.38;;
35010;SDS011;21205;37.378;127.098;2023-03-17T00:51:47;13.27;;;4.90;;
35010;SDS011;21205;37.378;127.098;2023-03-17T00:54:18;10.55;;;4.53;;
35010;SDS011;21205;37.378;127.098;2023-03-17T00:56:49;8.35;;;4.50;;
35010;SDS011;21205;37.378;127.098;2023-03-17T01:01:57;12.05;;;4.85;;
35010;SDS011;21205;37.378;127.098;2023-03-17T01:04:27;14.38;;;4.82;;
35010;SDS011;21205;37.378;127.098;2023-03-17T01:06:56;10.68;;;4.70;;
35010;SDS011;21205;37.378;127.098;2023-03-17T01:09:26;9.07;;;5.20;;
35010;SDS011;21205;37.378;127.098;2023-03-17T01:11:58;10.50;;;4.13;;
35010;SDS011;21205;37.378;127.098;2023-03-17T01:14:27;17.23;;;4.57;;
35010;SDS011;21205;37.378;127.098;2023-03-17T01:16:57;10.80;;;4.20;;
35010;SDS011;21205;37.378;127.098;2023-03-17T01:19:27;11.73;;;4.88;;
35010;SDS011;21205;37.378;127.098;2023-03-17T01:21:57;11.73;;;4.78;;
35010;SDS011;21205;37.378;127.098;2023-03-17T01:24:26;8.00;;;4.38;;
35010;SDS011;21205;37.378;127.098;2023-03-17T01:26:56;6.80;;;4.03;;
35010;SDS011;21205;37.378;127.098;2023-03-17T01:29:26;7.93;;;4.10;;
35010;SDS011;21205;37.378;127.098;2023-03-17T01:31:55;12.18;;;4.30;;
35010;SDS011;21205;37.378;127.098;2023-03-17T01:34:25;10.02;;;4.78;;
35010;SDS011;21205;37.378;127.098;2023-03-17T01:36:55;15.73;;;4.50;;
35010;SDS011;21205;37.378;127.098;2023-03-17T01:39:24;11.90;;;4.68;;
35010;SDS011;21205;37.378;127.098;2023-03-17T01:41:57;10.13;;;4.53;;
35010;SDS011;21205;37.378;127.098;2023-03-17T01:44:28;6.90;;;4.00;;
35010;SDS011;21205;37.378;127.098;2023-03-17T01:46:59;11.35;;;3.90;;
35010;SDS011;21205;37.378;127.098;2023-03-17T01:52:12;7.43;;;3.58;;
35010;SDS011;21205;37.378;127.098;2023-03-17T01:54:53;9.63;;;4.00;;
35010;SDS011;21205;37.378;127.098;2023-03-17T02:00:19;13.00;;;4.20;;
35010;SDS011;21205;37.378;127.098;2023-03-17T02:02:52;12.98;;;3.63;;
35010;SDS011;21205;37.378;127.098;2023-03-17T02:05:25;7.67;;;3.70;;
35010;SDS011;21205;37.378;127.098;2023-03-17T02:07:58;9.55;;;4.25;;
35010;SDS011;21205;37.378;127.098;2023-03-17T02:10:28;8.07;;;3.67;;
35010;SDS011;21205;37.378;127.098;2023-03-17T02:12:58;8.38;;;4.05;;
35010;SDS011;21205;37.378;127.098;2023-03-17T02:15:39;9.98;;;3.58;;
35010;SDS011;21205;37.378;127.098;2023-03-17T02:18:09;10.52;;;3.72;;
35010;SDS011;21205;37.378;127.098;2023-03-17T02:23:20;7.30;;;3.58;;
35010;SDS011;21205;37.378;127.098;2023-03-17T02:25:51;9.70;;;3.47;;
35010;SDS011;21205;37.378;127.098;2023-03-17T02:28:24;7.78;;;3.13;;
35010;SDS011;21205;37.378;127.098;2023-03-17T02:30:58;9.80;;;3.95;;
35010;SDS011;21205;37.378;127.098;2023-03-17T02:33:28;7.93;;;3.95;;
35010;SDS011;21205;37.378;127.098;2023-03-17T02:35:57;10.10;;;3.90;;
35010;SDS011;21205;37.378;127.098;2023-03-17T02:38:28;7.00;;;2.72;;
35010;SDS011;21205;37.378;127.098;2023-03-17T02:41:00;8.87;;;4.40;;
35010;SDS011;21205;37.378;127.098;2023-03-17T02:43:30;9.43;;;3.40;;
35010;SDS011;21205;37.378;127.098;2023-03-17T02:46:00;7.13;;;3.67;;
35010;SDS011;21205;37.378;127.098;2023-03-17T02:48:30;5.65;;;3.15;;
35010;SDS011;21205;37.378;127.098;2023-03-17T02:51:02;9.00;;;4.13;;
35010;SDS011;21205;37.378;127.098;2023-03-17T02:53:33;9.55;;;3.45;;
35010;SDS011;21205;37.378;127.098;2023-03-17T02:56:03;6.45;;;3.47;;
35010;SDS011;21205;37.378;127.098;2023-03-17T02:58:33;10.82;;;3.67;;
35010;SDS011;21205;37.378;127.098;2023-03-17T03:01:03;9.20;;;3.78;;
35010;SDS011;21205;37.378;127.098;2023-03-17T03:03:33;12.55;;;4.00;;
35010;SDS011;21205;37.378;127.098;2023-03-17T03:06:03;12.48;;;4.20;;
35010;SDS011;21205;37.378;127.098;2023-03-17T03:08:34;5.80;;;3.50;;
35010;SDS011;21205;37.378;127.098;2023-03-17T03:11:04;12.50;;;3.90;;
35010;SDS011;21205;37.378;127.098;2023-03-17T03:13:34;6.95;;;3.30;;
35010;SDS011;21205;37.378;127.098;2023-03-17T03:16:04;10.65;;;4.05;;
35010;SDS011;21205;37.378;127.098;2023-03-17T03:18:35;5.53;;;3.42;;
35010;SDS011;21205;37.378;127.098;2023-03-17T03:21:05;10.20;;;4.00;;
35010;SDS011;21205;37.378;127.098;2023-03-17T03:23:35;8.55;;;3.15;;
35010;SDS011;21205;37.378;127.098;2023-03-17T03:26:05;6.47;;;3.50;;
35010;SDS011;21205;37.378;127.098;2023-03-17T03:28:34;6.18;;;3.55;;
35010;SDS011;21205;37.378;127.098;2023-03-17T03:31:04;7.03;;;4.07;;
35010;SDS011;21205;37.378;127.098;2023-03-17T03:33:34;6.95;;;3.63;;
35010;SDS011;21205;37.378;127.098;2023-03-17T03:36:04;8.50;;;3.20;;
35010;SDS011;21205;37.378;127.098;2023-03-17T03:38:34;6.35;;;3.45;;
35010;SDS011;21205;37.378;127.098;2023-03-17T03:41:04;9.65;;;3.58;;
35010;SDS011;21205;37.378;127.098;2023-03-17T03:43:34;9.13;;;3.60;;
35010;SDS011;21205;37.378;127.098;2023-03-17T03:46:04;9.63;;;3.75;;
35010;SDS011;21205;37.378;127.098;2023-03-17T03:48:34;6.40;;;3.13;;
35010;SDS011;21205;37.378;127.098;2023-03-17T03:51:03;9.95;;;3.22;;
35010;SDS011;21205;37.378;127.098;2023-03-17T03:53:33;6.90;;;3.55;;
35010;SDS011;21205;37.378;127.098;2023-03-17T03:56:03;8.50;;;3.28;;
35010;SDS011;21205;37.378;127.098;2023-03-17T03:58:34;6.00;;;3.13;;
35010;SDS011;21205;37.378;127.098;2023-03-17T04:01:04;7.43;;;3.40;;
35010;SDS011;21205;37.378;127.098;2023-03-17T04:03:38;5.68;;;3.03;;
35010;SDS011;21205;37.378;127.098;2023-03-17T04:06:08;7.47;;;3.40;;
35010;SDS011;21205;37.378;127.098;2023-03-17T04:08:38;5.63;;;3.00;;
35010;SDS011;21205;37.378;127.098;2023-03-17T04:11:08;7.22;;;3.35;;
35010;SDS011;21205;37.378;127.098;2023-03-17T04:13:38;10.70;;;3.78;;
35010;SDS011;21205;37.378;127.098;2023-03-17T04:16:07;5.00;;;3.25;;
35010;SDS011;21205;37.378;127.098;2023-03-17T04:18:37;18.38;;;3.38;;
35010;SDS011;21205;37.378;127.098;2023-03-17T04:21:07;6.72;;;3.38;;
35010;SDS011;21205;37.378;127.098;2023-03-17T04:23:36;7.13;;;3.22;;
35010;SDS011;21205;37.378;127.098;2023-03-17T04:26:07;6.43;;;2.75;;
35010;SDS011;21205;37.378;127.098;2023-03-17T04:28:38;5.80;;;3.03;;
35010;SDS011;21205;37.378;127.098;2023-03-17T04:31:08;5.38;;;3.28;;
35010;SDS011;21205;37.378;127.098;2023-03-17T04:33:40;9.93;;;3.97;;
35010;SDS011;21205;37.378;127.098;2023-03-17T04:36:14;6.53;;;3.15;;
35010;SDS011;21205;37.378;127.098;2023-03-17T04:38:47;6.50;;;3.25;;
35010;SDS011;21205;37.378;127.098;2023-03-17T04:41:17;8.85;;;3.85;;
35010;SDS011;21205;37.378;127.098;2023-03-17T04:43:47;7.18;;;3.40;;
35010;SDS011;21205;37.378;127.098;2023-03-17T04:46:17;7.38;;;3.40;;
35010;SDS011;21205;37.378;127.098;2023-03-17T04:48:46;9.77;;;3.80;;
35010;SDS011;21205;37.378;127.098;2023-03-17T04:51:16;7.22;;;3.22;;
35010;SDS011;21205;37.378;127.098;2023-03-17T04:53:46;7.60;;;3.60;;
35010;SDS011;21205;37.378;127.098;2023-03-17T04:56:16;5.75;;;3.15;;
35010;SDS011;21205;37.378;127.098;2023-03-17T04:58:46;10.90;;;4.45;;
35010;SDS011;21205;37.378;127.098;2023-03-17T05:01:16;13.13;;;4.88;;
35010;SDS011;21205;37.378;127.098;2023-03-17T05:03:46;13.23;;;5.35;;
35010;SDS011;21205;37.378;127.098;2023-03-17T05:06:16;11.82;;;5.10;;
35010;SDS011;21205;37.378;127.098;2023-03-17T05:08:46;28.95;;;6.03;;
35010;SDS011;21205;37.378;127.098;2023-03-17T05:11:15;12.65;;;5.82;;
35010;SDS011;21205;37.378;127.098;2023-03-17T05:13:45;12.35;;;5.78;;
35010;SDS011;21205;37.378;127.098;2023-03-17T05:16:14;15.30;;;5.57;;
35010;SDS011;21205;37.378;127.098;2023-03-17T05:18:44;11.52;;;5.40;;
35010;SDS011;21205;37.378;127.098;2023-03-17T05:21:14;18.33;;;5.65;;
35010;SDS011;21205;37.378;127.098;2023-03-17T05:23:44;15.85;;;6.13;;
35010;SDS011;21205;37.378;127.098;2023-03-17T05:26:14;12.10;;;4.85;;
35010;SDS011;21205;37.378;127.098;2023-03-17T05:28:44;16.55;;;5.40;;
35010;SDS011;21205;37.378;127.098;2023-03-17T05:31:13;10.82;;;5.38;;
35010;SDS011;21205;37.378;127.098;2023-03-17T05:33:43;14.82;;;4.68;;
35010;SDS011;21205;37.378;127.098;2023-03-17T05:36:14;11.65;;;5.40;;
35010;SDS011;21205;37.378;127.098;2023-03-17T05:38:43;11.45;;;4.90;;
35010;SDS011;21205;37.378;127.098;2023-03-17T05:41:13;12.68;;;4.78;;
35010;SDS011;21205;37.378;127.098;2023-03-17T05:43:43;13.23;;;3.80;;
35010;SDS011;21205;37.378;127.098;2023-03-17T05:46:14;9.02;;;4.07;;
35010;SDS011;21205;37.378;127.098;2023-03-17T05:48:46;10.27;;;3.95;;
35010;SDS011;21205;37.378;127.098;2023-03-17T05:51:16;11.55;;;4.38;;
35010;SDS011;21205;37.378;127.098;2023-03-17T05:53:46;7.55;;;3.58;;
35010;SDS011;21205;37.378;127.098;2023-03-17T05:56:15;12.50;;;4.13;;
35010;SDS011;21205;37.378;127.098;2023-03-17T05:58:45;4.75;;;3.28;;
35010;SDS011;21205;37.378;127.098;2023-03-17T06:01:15;7.90;;;3.55;;
35010;SDS011;21205;37.378;127.098;2023-03-17T06:03:44;11.32;;;3.40;;
35010;SDS011;21205;37.378;127.098;2023-03-17T06:06:14;6.05;;;2.58;;
35010;SDS011;21205;37.378;127.098;2023-03-17T06:08:44;6.30;;;3.08;;
35010;SDS011;21205;37.378;127.098;2023-03-17T06:11:14;3.97;;;3.10;;
35010;SDS011;21205;37.378;127.098;2023-03-17T06:13:45;7.40;;;2.88;;
35010;SDS011;21205;37.378;127.098;2023-03-17T06:16:15;4.10;;;2.58;;
35010;SDS011;21205;37.378;127.098;2023-03-17T06:18:45;5.93;;;2.90;;
35010;SDS011;21205;37.378;127.098;2023-03-17T06:21:14;6.32;;;2.88;;
35010;SDS011;21205;37.378;127.098;2023-03-17T06:23:44;6.53;;;2.50;;
35010;SDS011;21205;37.378;127.098;2023-03-17T06:26:14;3.88;;;2.28;;
35010;SDS011;21205;37.378;127.098;2023-03-17T06:28:43;5.65;;;2.53;;
35010;SDS011;21205;37.378;127.098;2023-03-17T06:31:13;4.68;;;2.10;;
35010;SDS011;21205;37.378;127.098;2023-03-17T06:33:43;4.38;;;2.10;;
35010;SDS011;21205;37.378;127.098;2023-03-17T06:36:13;4.22;;;2.28;;
35010;SDS011;21205;37.378;127.098;2023-03-17T06:38:42;6.15;;;2.70;;
35010;SDS011;21205;37.378;127.098;2023-03-17T06:41:13;3.13;;;2.20;;
35010;SDS011;21205;37.378;127.098;2023-03-17T06:43:43;5.22;;;2.42;;
35010;SDS011;21205;37.378;127.098;2023-03-17T06:46:13;5.30;;;2.85;;
35010;SDS011;21205;37.378;127.098;2023-03-17T06:48:42;4.07;;;2.00;;
35010;SDS011;21205;37.378;127.098;2023-03-17T06:51:12;3.47;;;2.28;;
35010;SDS011;21205;37.378;127.098;2023-03-17T06:53:41;4.50;;;2.55;;
35010;SDS011;21205;37.378;127.098;2023-03-17T06:56:11;5.40;;;2.50;;
35010;SDS011;21205;37.378;127.098;2023-03-17T06:58:55;3.45;;;2.20;;
35010;SDS011;21205;37.378;127.098;2023-03-17T07:01:25;5.65;;;2.22;;
35010;SDS011;21205;37.378;127.098;2023-03-17T07:03:55;4.15;;;2.00;;
35010;SDS011;21205;37.378;127.098;2023-03-17T07:06:25;3.72;;;2.22;;
35010;SDS011;21205;37.378;127.098;2023-03-17T07:08:55;4.15;;;2.47;;
35010;SDS011;21205;37.378;127.098;2023-03-17T07:11:28;4.43;;;1.95;;
35010;SDS011;21205;37.378;127.098;2023-03-17T07:13:58;6.45;;;2.40;;
35010;SDS011;21205;37.378;127.098;2023-03-17T07:16:27;4.70;;;2.30;;
35010;SDS011;21205;37.378;127.098;2023-03-17T07:21:30;3.08;;;2.35;;
35010;SDS011;21205;37.378;127.098;2023-03-17T07:23:59;4.45;;;2.38;;
35010;SDS011;21205;37.378;127.098;2023-03-17T07:26:29;6.45;;;2.30;;
35010;SDS011;21205;37.378;127.098;2023-03-17T07:28:59;4.72;;;2.20;;
35010;SDS011;21205;37.378;127.098;2023-03-17T07:31:28;3.45;;;2.20;;
35010;SDS011;21205;37.378;127.098;2023-03-17T07:33:58;6.05;;;2.03;;
35010;SDS011;21205;37.378;127.098;2023-03-17T07:36:28;5.85;;;2.17;;
35010;SDS011;21205;37.378;127.098;2023-03-17T07:38:58;7.35;;;2.22;;
35010;SDS011;21205;37.378;127.098;2023-03-17T07:41:31;3.33;;;2.30;;
35010;SDS011;21205;37.378;127.098;2023-03-17T07:44:00;3.80;;;2.88;;
35010;SDS011;21205;37.378;127.098;2023-03-17T07:46:31;3.92;;;2.28;;
35010;SDS011;21205;37.378;127.098;2023-03-17T07:49:01;4.70;;;2.85;;
35010;SDS011;21205;37.378;127.098;2023-03-17T07:51:30;6.97;;;2.72;;
35010;SDS011;21205;37.378;127.098;2023-03-17T07:54:00;3.50;;;2.40;;
35010;SDS011;21205;37.378;127.098;2023-03-17T07:56:33;3.42;;;2.15;;
35010;SDS011;21205;37.378;127.098;2023-03-17T07:59:03;5.75;;;2.42;;
35010;SDS011;21205;37.378;127.098;2023-03-17T08:01:37;4.45;;;2.38;;
35010;SDS011;21205;37.378;127.098;2023-03-17T08:04:07;4.13;;;2.17;;
35010;SDS011;21205;37.378;127.098;2023-03-17T08:06:40;4.45;;;2.72;;
35010;SDS011;21205;37.378;127.098;2023-03-17T08:09:09;4.95;;;2.95;;
35010;SDS011;21205;37.378;127.098;2023-03-17T08:11:40;3.67;;;2.25;;
35010;SDS011;21205;37.378;127.098;2023-03-17T08:14:09;4.10;;;2.47;;
35010;SDS011;21205;37.378;127.098;2023-03-17T08:16:40;4.53;;;2.50;;
35010;SDS011;21205;37.378;127.098;2023-03-17T08:19:10;6.85;;;3.22;;
35010;SDS011;21205;37.378;127.098;2023-03-17T08:21:39;6.13;;;3.42;;
35010;SDS011;21205;37.378;127.098;2023-03-17T08:24:09;15.40;;;4.38;;
35010;SDS011;21205;37.378;127.098;2023-03-17T08:26:39;4.88;;;3.03;;
35010;SDS011;21205;37.378;127.098;2023-03-17T08:29:08;7.22;;;3.25;;
35010;SDS011;21205;37.378;127.098;2023-03-17T08:31:38;7.85;;;3.00;;
35010;SDS011;21205;37.378;127.098;2023-03-17T08:34:10;7.22;;;3.22;;
35010;SDS011;21205;37.378;127.098;2023-03-17T08:36:40;3.25;;;2.40;;
35010;SDS011;21205;37.378;127.098;2023-03-17T08:39:10;3.90;;;2.80;;
35010;SDS011;21205;37.378;127.098;2023-03-17T08:41:40;5.32;;;3.00;;
35010;SDS011;21205;37.378;127.098;2023-03-17T08:44:10;5.95;;;2.65;;
35010;SDS011;21205;37.378;127.098;2023-03-17T08:46:41;4.75;;;2.53;;
35010;SDS011;21205;37.378;127.098;2023-03-17T08:49:11;7.03;;;2.63;;
35010;SDS011;21205;37.378;127.098;2023-03-17T08:51:41;4.68;;;2.60;;
35010;SDS011;21205;37.378;127.098;2023-03-17T08:54:12;4.85;;;2.88;;
35010;SDS011;21205;37.378;127.098;2023-03-17T08:56:42;4.68;;;2.35;;
35010;SDS011;21205;37.378;127.098;2023-03-17T08:59:12;4.97;;;3.08;;
35010;SDS011;21205;37.378;127.098;2023-03-17T09:01:42;5.07;;;2.53;;
35010;SDS011;21205;37.378;127.098;2023-03-17T09:04:13;4.72;;;2.85;;
35010;SDS011;21205;37.378;127.098;2023-03-17T09:06:43;3.92;;;2.45;;
35010;SDS011;21205;37.378;127.098;2023-03-17T09:09:28;4.78;;;2.35;;
35010;SDS011;21205;37.378;127.098;2023-03-17T09:11:58;4.72;;;2.50;;
35010;SDS011;21205;37.378;127.098;2023-03-17T09:14:32;4.63;;;2.85;;
35010;SDS011;21205;37.378;127.098;2023-03-17T09:17:11;4.25;;;2.60;;
35010;SDS011;21205;37.378;127.098;2023-03-17T09:19:41;5.10;;;2.90;;
35010;SDS011;21205;37.378;127.098;2023-03-17T09:22:12;5.05;;;3.15;;
35010;SDS011;21205;37.378;127.098;2023-03-17T09:24:43;4.40;;;2.85;;
35010;SDS011;21205;37.378;127.098;2023-03-17T09:27:13;3.72;;;2.80;;
35010;SDS011;21205;37.378;127.098;2023-03-17T09:29:43;3.75;;;2.53;;
35010;SDS011;21205;37.378;127.098;2023-03-17T09:32:14;6.75;;;3.00;;
35010;SDS011;21205;37.378;127.098;2023-03-17T09:34:43;6.85;;;3.47;;
35010;SDS011;21205;37.378;127.098;2023-03-17T09:37:17;5.07;;;3.15;;
35010;SDS011;21205;37.378;127.098;2023-03-17T09:39:46;4.20;;;2.78;;
35010;SDS011;21205;37.378;127.098;2023-03-17T09:53:04;5.22;;;3.00;;
35010;SDS011;21205;37.378;127.098;2023-03-17T09:55:50;5.15;;;3.30;;
35010;SDS011;21205;37.378;127.098;2023-03-17T09:58:42;12.30;;;3.30;;
35010;SDS011;21205;37.378;127.098;2023-03-17T10:01:18;4.38;;;3.10;;
35010;SDS011;21205;37.378;127.098;2023-03-17T10:03:48;5.65;;;3.28;;
35010;SDS011;21205;37.378;127.098;2023-03-17T10:06:23;6.78;;;2.78;;
35010;SDS011;21205;37.378;127.098;2023-03-17T10:12:20;4.97;;;3.28;;
35010;SDS011;21205;37.378;127.098;2023-03-17T10:15:13;6.57;;;3.03;;
35010;SDS011;21205;37.378;127.098;2023-03-17T10:17:48;8.73;;;3.45;;
35010;SDS011;21205;37.378;127.098;2023-03-17T10:20:29;4.43;;;3.10;;
35010;SDS011;21205;37.378;127.098;2023-03-17T10:23:04;5.82;;;3.05;;
35010;SDS011;21205;37.378;127.098;2023-03-17T10:25:39;5.03;;;2.97;;
35010;SDS011;21205;37.378;127.098;2023-03-17T10:28:18;5.90;;;3.00;;
35010;SDS011;21205;37.378;127.098;2023-03-17T10:30:53;5.97;;;3.22;;
35010;SDS011;21205;37.378;127.098;2023-03-17T10:33:42;5.53;;;3.38;;
35010;SDS011;21205;37.378;127.098;2023-03-17T10:36:16;5.50;;;2.90;;
35010;SDS011;21205;37.378;127.098;2023-03-17T10:39:00;4.30;;;3.25;;
35010;SDS011;21205;37.378;127.098;2023-03-17T10:41:34;9.95;;;3.42;;
35010;SDS011;21205;37.378;127.098;2023-03-17T10:44:14;6.65;;;3.13;;
35010;SDS011;21205;37.378;127.098;2023-03-17T10:47:25;5.22;;;3.20;;
35010;SDS011;21205;37.378;127.098;2023-03-17T10:52:43;5.05;;;3.28;;
35010;SDS011;21205;37.378;127.098;2023-03-17T10:55:15;4.38;;;3.20;;
35010;SDS011;21205;37.378;127.098;2023-03-17T11:00:31;5.47;;;3.20;;
35010;SDS011;21205;37.378;127.098;2023-03-17T11:03:13;4.97;;;2.90;;
35010;SDS011;21205;37.378;127.098;2023-03-17T11:05:54;5.13;;;2.90;;
35010;SDS011;21205;37.378;127.098;2023-03-17T11:08:37;6.72;;;3.05;;
35010;SDS011;21205;37.378;127.098;2023-03-17T11:11:30;6.38;;;3.22;;
35010;SDS011;21205;37.378;127.098;2023-03-17T11:14:09;4.70;;;2.95;;
35010;SDS011;21205;37.378;127.098;2023-03-17T11:25:09;4.20;;;2.97;;
35010;SDS011;21205;37.378;127.098;2023-03-17T11:27:58;5.97;;;3.15;;
35010;SDS011;21205;37.378;127.098;2023-03-17T11:39:38;11.18;;;2.83;;
35010;SDS011;21205;37.378;127.098;2023-03-17T11:50:10;4.57;;;2.72;;
35010;SDS011;21205;37.378;127.098;2023-03-17T11:56:02;5.85;;;2.78;;
35010;SDS011;21205;37.378;127.098;2023-03-17T11:58:53;4.07;;;2.95;;
35010;SDS011;21205;37.378;127.098;2023-03-17T12:01:32;6.43;;;2.72;;
35010;SDS011;21205;37.378;127.098;2023-03-17T12:07:19;4.95;;;2.88;;
35010;SDS011;21205;37.378;127.098;2023-03-17T12:12:36;4.25;;;3.10;;
35010;SDS011;21205;37.378;127.098;2023-03-17T12:15:24;4.68;;;2.90;;
35010;SDS011;21205;37.378;127.098;2023-03-17T12:18:00;4.57;;;2.95;;
35010;SDS011;21205;37.378;127.098;2023-03-17T12:28:45;5.97;;;3.53;;
35010;SDS011;21205;37.378;127.098;2023-03-17T12:31:43;3.90;;;2.63;;
35010;SDS011;21205;37.378;127.098;2023-03-17T12:39:56;9.52;;;3.25;;
35010;SDS011;21205;37.378;127.098;2023-03-17T12:42:37;4.35;;;3.00;;
35010;SDS011;21205;37.378;127.098;2023-03-17T12:51:09;5.22;;;2.95;;
35010;SDS011;21205;37.378;127.098;2023-03-17T12:53:46;4.38;;;2.67;;
35010;SDS011;21205;37.378;127.098;2023-03-17T12:58:51;4.50;;;2.72;;
35010;SDS011;21205;37.378;127.098;2023-03-17T13:01:33;7.45;;;2.95;;
35010;SDS011;21205;37.378;127.098;2023-03-17T13:04:12;6.25;;;3.10;;
35010;SDS011;21205;37.378;127.098;2023-03-17T13:06:53;4.47;;;2.70;;
35010;SDS011;21205;37.378;127.098;2023-03-17T13:12:35;5.47;;;3.25;;
35010;SDS011;21205;37.378;127.098;2023-03-17T13:23:34;5.43;;;3.50;;
35010;SDS011;21205;37.378;127.098;2023-03-17T13:26:05;5.75;;;3.10;;
35010;SDS011;21205;37.378;127.098;2023-03-17T13:28:40;6.53;;;3.60;;
35010;SDS011;21205;37.378;127.098;2023-03-17T13:34:17;7.90;;;3.90;;
35010;SDS011;21205;37.378;127.098;2023-03-17T13:37:01;5.00;;;3.17;;
35010;SDS011;21205;37.378;127.098;2023-03-17T13:45:40;6.85;;;3.42;;
35010;SDS011;21205;37.378;127.098;2023-03-17T13:48:30;10.45;;;3.75;;
35010;SDS011;21205;37.378;127.098;2023-03-17T13:53:39;7.50;;;3.78;;
35010;SDS011;21205;37.378;127.098;2023-03-17T13:56:17;7.50;;;4.28;;
35010;SDS011;21205;37.378;127.098;2023-03-17T14:10:35;7.07;;;3.65;;
35010;SDS011;21205;37.378;127.098;2023-03-17T14:16:11;6.22;;;3.80;;
35010;SDS011;21205;37.378;127.098;2023-03-17T14:19:11;9.45;;;3.88;;
35010;SDS011;21205;37.378;127.098;2023-03-17T14:21:44;7.05;;;3.92;;
35010;SDS011;21205;37.378;127.098;2023-03-17T14:24:24;5.78;;;3.70;;
35010;SDS011;21205;37.378;127.098;2023-03-17T14:27:02;7.50;;;3.67;;
35010;SDS011;21205;37.378;127.098;2023-03-17T14:29:35;6.55;;;4.25;;
35010;SDS011;21205;37.378;127.098;2023-03-17T14:32:09;6.35;;;3.50;;
35010;SDS011;21205;37.378;127.098;2023-03-17T14:34:47;7.75;;;4.20;;
35010;SDS011;21205;37.378;127.098;2023-03-17T14:37:26;5.80;;;3.47;;
35010;SDS011;21205;37.378;127.098;2023-03-17T14:39:56;7.38;;;3.90;;
35010;SDS011;21205;37.378;127.098;2023-03-17T14:42:27;6.93;;;3.72;;
35010;SDS011;21205;37.378;127.098;2023-03-17T14:45:00;7.72;;;4.07;;
35010;SDS011;21205;37.378;127.098;2023-03-17T14:47:35;7.00;;;3.70;;
35010;SDS011;21205;37.378;127.098;2023-03-17T14:50:29;9.07;;;4.57;;
35010;SDS011;21205;37.378;127.098;2023-03-17T14:53:00;7.30;;;4.35;;
35010;SDS011;21205;37.378;127.098;2023-03-17T14:55:36;9.27;;;4.30;;
35010;SDS011;21205;37.378;127.098;2023-03-17T14:58:25;7.07;;;4.13;;
35010;SDS011;21205;37.378;127.098;2023-03-17T15:01:05;8.90;;;4.18;;
35010;SDS011;21205;37.378;127.098;2023-03-17T15:03:50;6.32;;;4.10;;
35010;SDS011;21205;37.378;127.098;2023-03-17T15:06:27;7.80;;;4.05;;
35010;SDS011;21205;37.378;127.098;2023-03-17T15:08:58;8.15;;;4.05;;
35010;SDS011;21205;37.378;127.098;2023-03-17T15:11:39;7.22;;;4.30;;
35010;SDS011;21205;37.378;127.098;2023-03-17T15:14:15;7.40;;;4.82;;
35010;SDS011;21205;37.378;127.098;2023-03-17T15:17:15;6.22;;;3.72;;
35010;SDS011;21205;37.378;127.098;2023-03-17T15:19:49;7.70;;;4.70;;
35010;SDS011;21205;37.378;127.098;2023-03-17T15:27:30;7.72;;;4.15;;
35010;SDS011;21205;37.378;127.098;2023-03-17T15:30:00;7.70;;;4.35;;
35010;SDS011;21205;37.378;127.098;2023-03-17T15:32:30;9.55;;;4.40;;
35010;SDS011;21205;37.378;127.098;2023-03-17T15:35:00;8.63;;;4.88;;
35010;SDS011;21205;37.378;127.098;2023-03-17T15:37:30;7.95;;;4.57;;
35010;SDS011;21205;37.378;127.098;2023-03-17T15:40:02;7.75;;;4.60;;
35010;SDS011;21205;37.378;127.098;2023-03-17T15:42:36;7.18;;;4.13;;
35010;SDS011;21205;37.378;127.098;2023-03-17T15:45:07;8.60;;;4.65;;
35010;SDS011;21205;37.378;127.098;2023-03-17T15:47:37;9.60;;;5.00;;
35010;SDS011;21205;37.378;127.098;2023-03-17T15:50:16;8.07;;;4.68;;
35010;SDS011;21205;37.378;127.098;2023-03-17T15:52:51;9.63;;;4.93;;
35010;SDS011;21205;37.378;127.098;2023-03-17T15:55:23;7.25;;;4.45;;
35010;SDS011;21205;37.378;127.098;2023-03-17T15:57:58;7.18;;;4.35;;
35010;SDS011;21205;37.378;127.098;2023-03-17T16:00:28;9.55;;;4.30;;
35010;SDS011;21205;37.378;127.098;2023-03-17T16:02:59;8.55;;;4.68;;
35010;SDS011;21205;37.378;127.098;2023-03-17T16:05:36;14.20;;;5.47;;
35010;SDS011;21205;37.378;127.098;2023-03-17T16:08:07;8.75;;;4.93;;
35010;SDS011;21205;37.378;127.098;2023-03-17T16:10:45;10.48;;;5.20;;
35010;SDS011;21205;37.378;127.098;2023-03-17T16:13:14;10.52;;;5.10;;
35010;SDS011;21205;37.378;127.098;2023-03-17T16:16:05;7.03;;;4.75;;
35010;SDS011;21205;37.378;127.098;2023-03-17T16:18:34;7.25;;;4.28;;
35010;SDS011;21205;37.378;127.098;2023-03-17T16:21:05;10.15;;;4.90;;
35010;SDS011;21205;37.378;127.098;2023-03-17T16:23:36;8.18;;;4.80;;
35010;SDS011;21205;37.378;127.098;2023-03-17T16:26:06;8.85;;;4.53;;
35010;SDS011;21205;37.378;127.098;2023-03-17T16:28:43;9.32;;;4.88;;
35010;SDS011;21205;37.378;127.098;2023-03-17T16:31:16;8.57;;;5.18;;
35010;SDS011;21205;37.378;127.098;2023-03-17T16:33:58;9.40;;;4.93;;
35010;SDS011;21205;37.378;127.098;2023-03-17T16:36:28;10.82;;;5.10;;
35010;SDS011;21205;37.378;127.098;2023-03-17T16:38:58;9.20;;;4.95;;
35010;SDS011;21205;37.378;127.098;2023-03-17T16:41:30;9.32;;;4.70;;
35010;SDS011;21205;37.378;127.098;2023-03-17T16:44:02;11.65;;;5.15;;
35010;SDS011;21205;37.378;127.098;2023-03-17T16:46:33;8.35;;;4.82;;
35010;SDS011;21205;37.378;127.098;2023-03-17T16:49:03;6.28;;;4.57;;
35010;SDS011;21205;37.378;127.098;2023-03-17T16:51:33;7.60;;;4.93;;
35010;SDS011;21205;37.378;127.098;2023-03-17T16:54:03;8.05;;;4.93;;
35010;SDS011;21205;37.378;127.098;2023-03-17T16:56:32;9.68;;;5.07;;
35010;SDS011;21205;37.378;127.098;2023-03-17T16:59:02;9.63;;;5.38;;
35010;SDS011;21205;37.378;127.098;2023-03-17T17:01:32;9.73;;;5.35;;
35010;SDS011;21205;37.378;127.098;2023-03-17T17:04:07;8.23;;;4.93;;